Time;durP1;ratioP1;P1;durP2;ratioP2;P2;SDS_P1;SDS_P2;PMS_P1;PMS_P2;Temp;Humidity;BMP_temperature;BMP_pressure;BME280_temperature;BME280_humidity;BME280_pressure;Samples;Min_cycle;Max_cycle;Signal;HPM_P1;HPM_P2
2022/04/10 00:00:32;;;;;;;5.37;2.20;;;;;4.40;96180.00;;;;8350788;28;20232;-74
2022/04/10 00:04:35;;;;;;;4.57;2.07;;;;;4.40;96185.00;;;;8348451;28;20701;-74
2022/04/10 00:08:39;;;;;;;4.80;2.40;;;;;4.40;96188.00;;;;8352380;28;21006;-74
2022/04/10 00:12:42;;;;;;;4.50;2.40;;;;;4.40;96181.00;;;;8350154;28;20264;-75
2022/04/10 00:16:47;;;;;;;4.13;2.03;;;;;4.40;96181.00;;;;8349971;28;20222;-75
2022/04/10 00:20:50;;;;;;;2.57;2.00;;;;;4.30;96184.00;;;;8350907;28;20313;-74
2022/04/10 00:24:53;;;;;;;2.30;2.00;;;;;4.30;96198.00;;;;8351661;28;20225;-74
2022/04/10 00:28:58;;;;;;;5.70;2.13;;;;;4.30;96203.00;;;;8349623;28;20898;-75
2022/04/10 00:33:03;;;;;;;2.13;1.93;;;;;4.20;96195.00;;;;8349384;28;20258;-73
2022/04/10 00:37:06;;;;;;;4.10;2.03;;;;;4.10;96203.00;;;;8350472;28;20237;-75
2022/04/10 00:41:09;;;;;;;3.03;2.23;;;;;4.00;96212.00;;;;8347369;28;20840;-74
2022/04/10 00:45:12;;;;;;;8.20;2.50;;;;;4.00;96216.00;;;;8344588;28;20259;-73
2022/04/10 00:49:19;;;;;;;2.83;2.40;;;;;4.00;96212.00;;;;8348770;28;20226;-73
2022/04/10 00:53:22;;;;;;;4.73;2.37;;;;;4.00;96206.00;;;;8350322;28;20261;-74
2022/04/10 00:57:26;;;;;;;2.60;2.40;;;;;3.90;96202.00;;;;8349125;28;20854;-73
2022/04/10 01:01:29;;;;;;;5.83;3.57;;;;;3.90;96205.00;;;;8354197;28;20259;-74
2022/04/10 01:05:37;;;;;;;8.67;3.97;;;;;4.00;96202.00;;;;8348143;28;20275;-73
2022/04/10 01:09:41;;;;;;;5.23;3.20;;;;;4.00;96206.00;;;;8350180;28;20227;-74
2022/04/10 01:13:44;;;;;;;5.23;3.27;;;;;3.90;96207.00;;;;8349620;28;21113;-75
2022/04/10 01:17:48;;;;;;;4.07;3.20;;;;;3.80;96211.00;;;;8349674;28;20306;-73
2022/04/10 01:21:59;;;;;;;4.83;3.13;;;;;3.70;96208.00;;;;8348976;28;20639;-72
2022/04/10 01:26:04;;;;;;;5.00;3.27;;;;;3.60;96208.00;;;;8347957;28;20238;-72
2022/04/10 01:30:09;;;;;;;9.17;4.60;;;;;3.50;96219.00;;;;8341509;28;20258;-73
2022/04/10 01:34:14;;;;;;;5.47;3.37;;;;;3.40;96212.00;;;;8354206;28;20315;-72
2022/04/10 01:38:19;;;;;;;4.37;3.80;;;;;3.40;96215.00;;;;8348047;28;20303;-73
2022/04/10 01:42:23;;;;;;;3.13;2.83;;;;;3.40;96215.00;;;;8345997;28;20255;-72
2022/04/10 01:46:29;;;;;;;6.40;3.87;;;;;3.40;96212.00;;;;8350076;28;20228;-72
2022/04/10 01:50:33;;;;;;;8.80;4.10;;;;;3.30;96211.00;;;;8347720;28;20246;-72
2022/04/10 01:54:36;;;;;;;4.27;3.47;;;;;3.30;96207.00;;;;8348279;28;20228;-72
2022/04/10 01:58:42;;;;;;;6.37;4.10;;;;;3.20;96204.00;;;;8348396;28;20316;-72
2022/04/10 02:02:46;;;;;;;5.33;4.10;;;;;3.10;96206.00;;;;8350101;28;20734;-72
2022/04/10 02:06:49;;;;;;;9.87;4.87;;;;;3.00;96200.00;;;;8340504;28;20370;-72
2022/04/10 02:10:52;;;;;;;9.03;4.37;;;;;2.90;96196.00;;;;8348412;28;20339;-72
2022/04/10 02:14:59;;;;;;;8.60;4.40;;;;;2.90;96204.00;;;;8348255;28;20465;-72
2022/04/10 02:19:03;;;;;;;6.33;4.10;;;;;2.80;96205.00;;;;8348190;28;20235;-72
2022/04/10 02:23:06;;;;;;;5.57;4.13;;;;;2.70;96193.00;;;;8345402;28;20239;-71
2022/04/10 02:27:10;;;;;;;7.57;4.07;;;;;2.60;96196.00;;;;8343791;28;20234;-73
2022/04/10 02:31:14;;;;;;;7.07;4.50;;;;;2.50;96194.00;;;;8346567;28;20254;-73
2022/04/10 02:35:18;;;;;;;10.43;4.60;;;;;2.50;96201.00;;;;8350229;28;20289;-72
2022/04/10 02:39:21;;;;;;;7.37;4.80;;;;;2.60;96204.00;;;;8345351;28;20231;-71
2022/04/10 02:43:24;;;;;;;6.90;4.27;;;;;2.60;96203.00;;;;8346777;28;20230;-72
2022/04/10 02:47:30;;;;;;;7.83;4.60;;;;;2.80;96204.00;;;;8345283;28;20235;-71
2022/04/10 02:51:33;;;;;;;8.63;4.77;;;;;2.70;96203.00;;;;8343619;28;20635;-71
2022/04/10 02:55:36;;;;;;;8.43;4.40;;;;;2.70;96198.00;;;;8342927;28;20314;-71
2022/04/10 02:59:40;;;;;;;8.10;3.83;;;;;2.60;96207.00;;;;8350263;28;20237;-72
2022/04/10 03:03:44;;;;;;;5.77;4.23;;;;;2.50;96200.00;;;;8360622;22;20236;-71
2022/04/10 03:07:47;;;;;;;7.87;4.50;;;;;2.50;96202.00;;;;8349716;28;20245;-71
2022/04/10 03:11:51;;;;;;;10.27;4.63;;;;;2.40;96209.00;;;;8349145;28;20234;-72
2022/04/10 03:15:54;;;;;;;10.00;4.30;;;;;2.50;96204.00;;;;8351188;28;20862;-71
2022/04/10 03:19:59;;;;;;;9.93;4.10;;;;;2.70;96209.00;;;;8352886;28;20248;-71
2022/04/10 03:24:02;;;;;;;8.53;4.33;;;;;2.80;96215.00;;;;8351240;28;20222;-72
2022/04/10 03:28:06;;;;;;;10.93;4.50;;;;;3.00;96211.00;;;;8353192;28;20707;-72
2022/04/10 03:32:09;;;;;;;6.13;4.30;;;;;3.00;96210.00;;;;8352304;28;20304;-69
2022/04/10 03:36:14;;;;;;;6.27;3.80;;;;;2.90;96211.00;;;;8353858;28;20265;-71
2022/04/10 03:40:17;;;;;;;8.17;4.00;;;;;2.80;96216.00;;;;8352122;28;20227;-71
2022/04/10 03:44:24;;;;;;;8.80;4.03;;;;;2.70;96214.00;;;;8353150;28;20243;-71
2022/04/10 03:48:27;;;;;;;10.70;4.50;;;;;2.70;96221.00;;;;8353227;28;20321;-72
2022/04/10 03:52:32;;;;;;;10.60;4.20;;;;;2.60;96230.00;;;;8352394;28;20230;-72
2022/04/10 03:56:35;;;;;;;11.17;4.40;;;;;2.50;96228.00;;;;8353656;28;20299;-72
2022/04/10 04:00:38;;;;;;;8.90;4.37;;;;;2.50;96229.00;;;;8352163;28;20220;-72
2022/04/10 04:04:41;;;;;;;6.40;4.40;;;;;2.50;96238.00;;;;8351337;28;20238;-73
2022/04/10 04:08:46;;;;;;;8.43;4.60;;;;;2.50;96236.00;;;;8345134;28;21040;-72
2022/04/10 04:12:49;;;;;;;8.07;4.17;;;;;2.50;96248.00;;;;8350176;28;20257;-72
2022/04/10 04:16:52;;;;;;;12.37;4.93;;;;;2.50;96245.00;;;;8349470;28;20225;-72
2022/04/10 04:20:55;;;;;;;10.07;4.67;;;;;2.60;96258.00;;;;8350696;28;20243;-73
2022/04/10 04:25:05;;;;;;;11.13;4.67;;;;;2.70;96271.00;;;;8351315;28;20234;-72
2022/04/10 04:29:08;;;;;;;8.93;4.50;;;;;2.70;96278.00;;;;8349648;28;20776;-72
2022/04/10 04:33:11;;;;;;;7.60;4.50;;;;;2.60;96275.00;;;;8348888;28;20247;-73
2022/04/10 04:37:15;;;;;;;7.30;4.07;;;;;2.60;96292.00;;;;8353863;28;20689;-73
2022/04/10 04:41:19;;;;;;;9.87;5.27;;;;;2.50;96285.00;;;;8348900;28;20322;-75
2022/04/10 04:45:23;;;;;;;9.13;4.40;;;;;2.60;96293.00;;;;8349306;28;20222;-73
2022/04/10 04:49:26;;;;;;;10.57;4.63;;;;;2.70;96296.00;;;;8352666;28;20436;-74
2022/04/10 04:53:37;;;;;;;7.70;4.93;;;;;2.70;96294.00;;;;8349733;28;20242;-73
2022/04/10 04:57:41;;;;;;;8.33;4.80;;;;;2.80;96310.00;;;;8349764;28;20692;-74
2022/04/10 05:01:45;;;;;;;7.70;4.00;;;;;2.80;96313.00;;;;8346254;28;20234;-72
2022/04/10 05:05:49;;;;;;;13.57;5.30;;;;;2.80;96324.00;;;;8355657;28;20220;-73
2022/04/10 05:09:52;;;;;;;10.60;5.27;;;;;2.90;96323.00;;;;8353368;28;20896;-73
2022/04/10 05:13:57;;;;;;;9.80;5.80;;;;;2.90;96324.00;;;;8353813;28;20316;-73
2022/04/10 05:18:00;;;;;;;12.50;5.33;;;;;3.00;96338.00;;;;8345202;28;20596;-70
2022/04/10 05:22:03;;;;;;;11.40;5.50;;;;;3.00;96343.00;;;;8345184;28;20576;-69
2022/04/10 05:26:07;;;;;;;11.63;5.87;;;;;3.00;96352.00;;;;8349135;28;20494;-71
2022/04/10 05:30:13;;;;;;;12.33;5.90;;;;;3.00;96352.00;;;;8348593;28;20255;-69
2022/04/10 05:34:16;;;;;;;11.87;5.90;;;;;3.10;96358.00;;;;8346954;28;20725;-71
2022/04/10 05:38:19;;;;;;;9.33;5.43;;;;;3.20;96366.00;;;;8338382;28;20303;-74
2022/04/10 05:42:22;;;;;;;11.93;6.33;;;;;3.30;96367.00;;;;8347061;28;20226;-74
2022/04/10 05:46:27;;;;;;;10.73;5.87;;;;;3.40;96373.00;;;;8344897;28;20353;-72
2022/04/10 05:50:30;;;;;;;10.03;4.97;;;;;3.50;96376.00;;;;8344378;28;20235;-72
2022/04/10 05:54:34;;;;;;;8.33;5.67;;;;;3.70;96378.00;;;;8339703;28;20234;-71
2022/04/10 05:58:37;;;;;;;12.77;5.40;;;;;4.00;96397.00;;;;8343074;28;20531;-72
2022/04/10 06:02:42;;;;;;;9.37;5.03;;;;;4.10;96402.00;;;;8344660;28;20782;-73
2022/04/10 06:06:45;;;;;;;9.53;5.00;;;;;4.20;96402.00;;;;8342568;28;20261;-70
2022/04/10 06:10:49;;;;;;;10.80;5.30;;;;;4.20;96401.00;;;;8343058;28;20228;-71
2022/04/10 06:14:52;;;;;;;9.20;5.47;;;;;4.10;96413.00;;;;8345266;28;20319;-72
2022/04/10 06:18:57;;;;;;;13.67;5.20;;;;;4.10;96419.00;;;;8346084;28;20227;-73
2022/04/10 06:23:00;;;;;;;12.67;5.67;;;;;4.20;96420.00;;;;8346100;28;20243;-72
2022/04/10 06:27:04;;;;;;;8.93;5.57;;;;;4.40;96428.00;;;;8344157;28;20681;-76
2022/04/10 06:31:07;;;;;;;9.93;4.57;;;;;4.70;96433.00;;;;8343602;28;20498;-74
2022/04/10 06:35:12;;;;;;;6.83;4.00;;;;;5.00;96434.00;;;;8341591;28;20227;-74
2022/04/10 06:39:16;;;;;;;6.27;3.57;;;;;5.30;96427.00;;;;8343360;28;20567;-72
2022/04/10 06:43:20;;;;;;;9.07;4.33;;;;;5.30;96436.00;;;;8343590;28;20232;-71
2022/04/10 06:47:23;;;;;;;9.60;3.70;;;;;5.30;96438.00;;;;8345835;28;20717;-71
2022/04/10 06:51:28;;;;;;;5.93;5.00;;;;;5.20;96446.00;;;;8348226;28;20303;-70
2022/04/10 06:55:32;;;;;;;8.63;4.00;;;;;5.20;96451.00;;;;8343740;28;20228;-77
2022/04/10 06:59:37;;;;;;;22.43;18.90;;;;;5.40;96450.00;;;;8343020;28;20256;-79
2022/04/10 07:03:40;;;;;;;6.47;3.47;;;;;5.50;96455.00;;;;8344319;28;20241;-79
2022/04/10 07:07:45;;;;;;;7.83;3.40;;;;;5.60;96466.00;;;;8336477;28;20324;-82
2022/04/10 07:11:48;;;;;;;6.73;3.40;;;;;5.70;96459.00;;;;8337472;28;20233;-77
2022/04/10 07:15:52;;;;;;;8.87;3.00;;;;;5.90;96468.00;;;;8337136;28;20278;-80
2022/04/10 07:19:55;;;;;;;8.37;3.77;;;;;6.00;96471.00;;;;8340235;28;20709;-79
2022/04/10 07:24:00;;;;;;;38.77;3.40;;;;;6.10;96470.00;;;;8340265;28;20228;-79
2022/04/10 07:28:04;;;;;;;9.13;3.47;;;;;5.90;96471.00;;;;8343504;28;20245;-77
2022/04/10 07:32:08;;;;;;;8.63;3.40;;;;;6.20;96471.00;;;;8346553;28;20239;-72
2022/04/10 07:36:12;;;;;;;5.73;3.37;;;;;6.60;96466.00;;;;8346442;28;20255;-73
2022/04/10 07:40:17;;;;;;;4.37;2.70;;;;;6.60;96466.00;;;;8364908;28;20310;-73
2022/04/10 07:44:20;;;;;;;7.03;2.70;;;;;6.60;96486.00;;;;8351938;28;20918;-73
2022/04/10 07:48:24;;;;;;;5.37;2.67;;;;;7.00;96470.00;;;;8330264;28;20319;-71
2022/04/10 07:52:27;;;;;;;5.57;2.90;;;;;7.30;96478.00;;;;8346701;28;20228;-74
2022/04/10 07:56:31;;;;;;;8.97;3.07;;;;;7.60;96489.00;;;;8351813;28;20231;-80
2022/04/10 08:00:35;;;;;;;4.97;2.70;;;;;8.10;96475.00;;;;8354432;28;20303;-75
2022/04/10 08:04:38;;;;;;;4.27;2.97;;;;;7.80;96487.00;;;;8350684;28;20670;-75
2022/04/10 08:08:41;;;;;;;5.33;3.00;;;;;7.20;96489.00;;;;8349611;28;20224;-73
2022/04/10 08:12:45;;;;;;;9.57;3.07;;;;;7.00;96491.00;;;;8353325;28;20306;-76
2022/04/10 08:16:49;;;;;;;3.33;2.57;;;;;8.60;96507.00;;;;8350006;28;20254;-74
2022/04/10 08:20:52;;;;;;;12.33;2.60;;;;;8.80;96506.00;;;;8349104;28;20324;-74
2022/04/10 08:24:56;;;;;;;5.00;2.53;;;;;9.20;96516.00;;;;8343279;28;20701;-74
2022/04/10 08:29:00;;;;;;;7.27;2.43;;;;;9.80;96507.00;;;;8342570;28;20267;-76
2022/04/10 08:33:04;;;;;;;3.50;2.40;;;;;9.10;96526.00;;;;8342735;28;20666;-75
2022/04/10 08:37:07;;;;;;;10.70;2.33;;;;;8.70;96526.00;;;;8344564;28;20248;-76
2022/04/10 08:41:11;;;;;;;4.20;1.90;;;;;8.70;96524.00;;;;8346221;28;20235;-79
2022/04/10 08:45:19;;;;;;;4.07;2.10;;;;;8.90;96532.00;;;;8342667;28;20230;-76
2022/04/10 08:49:25;;;;;;;4.68;2.00;;;;;8.90;96525.00;;;;8344448;28;20607;-75
2022/04/10 08:53:33;;;;;;;3.93;1.93;;;;;8.60;96528.00;;;;8346072;28;20243;-74
2022/04/10 08:57:36;;;;;;;4.23;2.10;;;;;8.10;96530.00;;;;8346171;28;20644;-76
2022/04/10 09:01:41;;;;;;;5.40;2.33;;;;;9.10;96535.00;;;;8347852;28;20240;-73
2022/04/10 09:06:00;;;;;;;5.37;1.87;;;;;9.70;96556.00;;;;8348300;28;20311;-73
2022/04/10 09:10:04;;;;;;;3.83;2.03;;;;;9.80;96535.00;;;;8342596;28;20298;-70
2022/04/10 09:14:08;;;;;;;7.30;2.70;;;;;10.90;96561.00;;;;8338826;28;20831;-76
2022/04/10 09:18:12;;;;;;;15.80;8.85;;;;;11.40;96548.00;;;;8348183;28;20235;-78
2022/04/10 09:22:27;;;;;;;5.45;2.20;;;;;11.50;96553.00;;;;8350633;28;20232;-76
2022/04/10 09:26:45;;;;;;;4.72;2.53;;;;;12.00;96560.00;;;;8349958;28;20295;-77
2022/04/10 09:30:48;;;;;;;8.98;3.67;;;;;11.80;96558.00;;;;8348596;28;20606;-75
2022/04/10 09:34:57;;;;;;;13.13;5.72;;;;;11.70;96557.00;;;;8358129;28;20343;-77
2022/04/10 09:39:01;;;;;;;2.70;2.45;;;;;11.80;96544.00;;;;8349149;28;20233;-75
2022/04/10 09:43:06;;;;;;;4.43;1.90;;;;;11.90;96551.00;;;;8350381;28;20781;-75
2022/04/10 09:47:10;;;;;;;2.20;1.77;;;;;12.10;96552.00;;;;8344575;28;20307;-77
2022/04/10 09:51:15;;;;;;;5.30;1.90;;;;;12.80;96535.00;;;;8347469;28;20214;-76
2022/04/10 09:55:34;;;;;;;2.88;1.75;;;;;13.30;96539.00;;;;8350500;28;20470;-79
2022/04/10 09:59:40;;;;;;;4.00;1.65;;;;;13.20;96560.00;;;;8348297;28;20303;-76
2022/04/10 10:03:44;;;;;;;4.13;2.33;;;;;13.10;96551.00;;;;8347480;28;20351;-82
2022/04/10 10:07:50;;;;;;;1.60;1.50;;;;;12.70;96538.00;;;;8343636;28;20304;-79
2022/04/10 10:11:54;;;;;;;3.30;1.73;;;;;12.30;96537.00;;;;8349924;28;20753;-77
2022/04/10 10:15:57;;;;;;;5.25;2.17;;;;;11.80;96543.00;;;;8345624;28;20718;-76
2022/04/10 10:20:01;;;;;;;3.92;1.92;;;;;11.80;96532.00;;;;8345033;28;20739;-75
2022/04/10 10:24:08;;;;;;;4.20;1.67;;;;;11.30;96535.00;;;;8344396;28;20792;-77
2022/04/10 10:28:31;;;;;;;2.22;1.77;;;;;11.10;96546.00;;;;8348263;28;20300;-77
2022/04/10 10:32:41;;;;;;;4.70;2.10;;;;;10.70;96540.00;;;;8348847;28;20303;-75
2022/04/10 10:36:44;;;;;;;6.75;2.05;;;;;11.40;96552.00;;;;8340909;28;20679;-75
2022/04/10 10:40:50;;;;;;;3.38;1.83;;;;;11.80;96539.00;;;;8343425;28;20657;-77
2022/04/10 10:44:53;;;;;;;2.70;2.03;;;;;11.80;96548.00;;;;8347398;28;20236;-76
2022/04/10 10:49:19;;;;;;;3.40;1.70;;;;;11.90;96551.00;;;;8339146;28;20275;-76
2022/04/10 10:53:53;;;;;;;2.55;1.50;;;;;12.20;96541.00;;;;8342964;28;20228;-73
2022/04/10 10:58:07;;;;;;;9.13;7.75;;;;;12.40;96542.00;;;;8304247;28;20313;-76
2022/04/10 11:02:12;;;;;;;6.10;3.60;;;;;11.90;96545.00;;;;8345439;28;20231;-75
2022/04/10 11:06:45;;;;;;;8.30;4.35;;;;;12.00;96530.00;;;;8348664;28;20226;-77
2022/04/10 11:10:53;;;;;;;10.65;6.50;;;;;12.20;96529.00;;;;8349562;28;20228;-75
2022/04/10 11:15:01;;;;;;;3.50;1.90;;;;;12.70;96538.00;;;;8348530;28;20291;-75
2022/04/10 11:19:04;;;;;;;9.85;9.02;;;;;13.30;96542.00;;;;8353993;28;20228;-74
2022/04/10 11:23:07;;;;;;;2.50;1.67;;;;;12.70;96537.00;;;;8344471;28;20224;-76
2022/04/10 11:27:13;;;;;;;4.75;2.38;;;;;12.40;96548.00;;;;8342510;28;20705;-75
2022/04/10 11:31:35;;;;;;;6.05;2.70;;;;;12.80;96552.00;;;;8352550;28;20253;-77
2022/04/10 11:35:40;;;;;;;2.50;1.83;;;;;12.50;96537.00;;;;8348912;28;20683;-77
2022/04/10 11:39:43;;;;;;;5.35;4.72;;;;;12.10;96543.00;;;;8351880;28;20234;-77
2022/04/10 11:43:49;;;;;;;4.65;2.03;;;;;12.00;96549.00;;;;8353425;28;20738;-76
2022/04/10 11:47:53;;;;;;;2.70;2.03;;;;;12.10;96546.00;;;;8354848;28;20669;-77
2022/04/10 11:51:58;;;;;;;2.78;1.92;;;;;12.00;96543.00;;;;8353853;28;20954;-77
2022/04/10 11:56:01;;;;;;;5.35;2.00;;;;;12.00;96539.00;;;;8354572;28;20332;-76
2022/04/10 12:00:09;;;;;;;4.97;1.88;;;;;12.10;96535.00;;;;8353520;28;20233;-76
2022/04/10 12:04:14;;;;;;;1.73;1.60;;;;;12.10;96546.00;;;;8325554;28;20256;-76
2022/04/10 12:08:18;;;;;;;2.72;1.70;;;;;12.00;96538.00;;;;8353634;28;20225;-76
2022/04/10 12:12:34;;;;;;;4.80;1.92;;;;;11.90;96536.00;;;;8353208;28;20260;-76
2022/04/10 12:16:41;;;;;;;7.50;1.90;;;;;12.00;96547.00;;;;8353074;28;20251;-76
2022/04/10 12:20:46;;;;;;;2.13;1.70;;;;;11.90;96545.00;;;;8353429;28;20247;-76
2022/04/10 12:24:49;;;;;;;2.55;1.98;;;;;12.10;96549.00;;;;8351698;28;20230;-76
2022/04/10 12:28:52;;;;;;;2.10;1.88;;;;;12.10;96554.00;;;;8353397;28;20247;-75
2022/04/10 12:32:56;;;;;;;2.10;1.67;;;;;11.90;96553.00;;;;8352353;28;20347;-76
2022/04/10 12:37:08;;;;;;;2.30;1.80;;;;;11.50;96559.00;;;;8351559;28;20238;-75
2022/04/10 12:41:11;;;;;;;2.85;2.10;;;;;11.20;96545.00;;;;8352669;28;20231;-75
2022/04/10 12:45:14;;;;;;;3.17;1.90;;;;;11.00;96559.00;;;;8351796;28;20297;-76
2022/04/10 12:49:18;;;;;;;1.83;1.70;;;;;10.80;96565.00;;;;8352674;28;20341;-75
2022/04/10 12:53:23;;;;;;;5.00;2.55;;;;;10.30;96566.00;;;;8352710;28;20315;-76
2022/04/10 12:57:27;;;;;;;4.60;2.40;;;;;9.70;96558.00;;;;8352495;28;20687;-73
2022/04/10 13:01:32;;;;;;;2.83;2.60;;;;;9.30;96552.00;;;;8354961;28;20706;-72
2022/04/10 13:05:37;;;;;;;3.63;2.47;;;;;8.70;96546.00;;;;8352419;28;20220;-73
2022/04/10 13:09:41;;;;;;;4.33;2.80;;;;;8.30;96545.00;;;;8351804;28;20228;-76
2022/04/10 13:14:00;;;;;;;6.03;3.33;;;;;8.00;96540.00;;;;8351908;28;20585;-76
2022/04/10 13:18:06;;;;;;;3.80;2.43;;;;;7.80;96540.00;;;;8324000;28;20268;-74
2022/04/10 13:22:09;;;;;;;4.50;2.53;;;;;7.90;96548.00;;;;8346473;28;20630;-75
2022/04/10 13:26:25;;;;;;;5.73;3.20;;;;;8.00;96527.00;;;;8355661;28;20274;-76
2022/04/10 13:30:29;;;;;;;5.80;2.80;;;;;8.60;96533.00;;;;8341978;28;20810;-76
2022/04/10 13:34:34;;;;;;;3.67;2.50;;;;;9.50;96535.00;;;;8343937;28;20256;-76
2022/04/10 13:38:38;;;;;;;2.60;2.40;;;;;9.90;96528.00;;;;8344511;28;20251;-76
2022/04/10 13:42:44;;;;;;;5.93;2.60;;;;;10.20;96529.00;;;;8346634;28;20785;-76
2022/04/10 13:46:47;;;;;;;2.27;2.17;;;;;10.40;96529.00;;;;8344811;28;20252;-75
2022/04/10 13:50:51;;;;;;;2.83;2.45;;;;;11.00;96523.00;;;;8342821;28;20299;-76
2022/04/10 13:54:55;;;;;;;5.17;2.43;;;;;11.10;96517.00;;;;8345762;28;20858;-76
2022/04/10 13:59:00;;;;;;;2.73;2.10;;;;;11.00;96518.00;;;;8336640;28;20259;-75
2022/04/10 14:03:04;;;;;;;2.67;2.20;;;;;11.30;96528.00;;;;8342354;28;20395;-75
2022/04/10 14:07:07;;;;;;;3.77;2.37;;;;;11.30;96524.00;;;;8342756;28;20315;-76
2022/04/10 14:11:11;;;;;;;3.10;2.03;;;;;11.40;96522.00;;;;8345610;28;20728;-75
2022/04/10 14:15:16;;;;;;;5.07;2.08;;;;;11.90;96506.00;;;;8345135;28;20585;-76
2022/04/10 14:19:19;;;;;;;4.85;2.40;;;;;12.20;96506.00;;;;8343551;28;20308;-74
2022/04/10 14:23:22;;;;;;;4.18;1.73;;;;;12.00;96518.00;;;;8344355;28;20231;-75
2022/04/10 14:27:25;;;;;;;1.90;1.80;;;;;11.70;96512.00;;;;8347075;28;20630;-76
2022/04/10 14:31:30;;;;;;;2.40;2.17;;;;;12.10;96527.00;;;;8342556;28;20842;-75
2022/04/10 14:35:33;;;;;;;2.10;1.90;;;;;12.10;96532.00;;;;8331191;28;20218;-81
2022/04/10 14:39:37;;;;;;;6.15;2.05;;;;;12.10;96516.00;;;;8345152;28;20227;-76
2022/04/10 14:43:41;;;;;;;1.95;1.83;;;;;12.60;96527.00;;;;8341631;28;20255;-76
2022/04/10 14:47:46;;;;;;;1.77;1.70;;;;;12.30;96515.00;;;;8344700;28;20233;-76
2022/04/10 14:51:50;;;;;;;3.03;1.85;;;;;12.00;96526.00;;;;8340083;28;20220;-77
2022/04/10 14:55:53;;;;;;;5.07;1.92;;;;;11.50;96539.00;;;;8343715;28;20212;-76
2022/04/10 14:59:57;;;;;;;2.83;2.47;;;;;11.20;96533.00;;;;8349628;28;20228;-77
2022/04/10 15:04:02;;;;;;;2.63;1.92;;;;;11.00;96538.00;;;;8354951;28;20235;-77
2022/04/10 15:08:06;;;;;;;2.60;1.90;;;;;11.10;96536.00;;;;8354186;28;20297;-77
2022/04/10 15:12:10;;;;;;;5.05;2.30;;;;;11.30;96547.00;;;;8351750;28;20661;-78
2022/04/10 15:16:13;;;;;;;4.53;3.00;;;;;11.60;96523.00;;;;8351371;28;20236;-78
2022/04/10 15:20:18;;;;;;;4.07;2.30;;;;;11.30;96541.00;;;;8350097;28;20228;-83
2022/04/10 15:24:21;;;;;;;2.57;2.10;;;;;11.10;96535.00;;;;8355480;28;20319;-81
2022/04/10 15:28:25;;;;;;;4.00;2.28;;;;;10.90;96537.00;;;;8351580;28;20221;-81
2022/04/10 15:32:28;;;;;;;3.60;2.03;;;;;10.80;96541.00;;;;8355210;28;20277;-81
2022/04/10 15:36:32;;;;;;;2.23;2.03;;;;;10.30;96540.00;;;;8369369;28;20240;-79
2022/04/10 15:40:37;;;;;;;4.03;2.00;;;;;10.00;96545.00;;;;8340769;28;20231;-77
2022/04/10 15:44:40;;;;;;;6.60;2.33;;;;;9.80;96545.00;;;;8354381;28;20224;-81
2022/04/10 15:48:43;;;;;;;4.30;2.47;;;;;9.60;96545.00;;;;8358093;28;20312;-80
2022/04/10 15:52:49;;;;;;;7.83;2.63;;;;;9.40;96540.00;;;;8356339;28;20228;-78
2022/04/10 15:56:52;;;;;;;6.20;2.47;;;;;9.30;96546.00;;;;8356085;28;20239;-75
2022/04/10 16:00:56;;;;;;;2.93;2.03;;;;;9.40;96548.00;;;;8355874;28;20229;-77
2022/04/10 16:05:00;;;;;;;3.20;2.30;;;;;9.40;96537.00;;;;8347807;28;20237;-76
2022/04/10 16:09:04;;;;;;;3.53;2.40;;;;;9.60;96535.00;;;;8361339;28;22285;-80
2022/04/10 16:13:08;;;;;;;3.17;2.20;;;;;10.00;96537.00;;;;8356721;28;20323;-80
2022/04/10 16:17:11;;;;;;;5.70;2.30;;;;;9.80;96541.00;;;;8350691;28;20221;-79
2022/04/10 16:21:14;;;;;;;2.35;2.13;;;;;9.60;96537.00;;;;8352261;28;20309;-77
2022/04/10 16:25:19;;;;;;;4.22;1.80;;;;;9.50;96526.00;;;;8356186;28;20684;-77
2022/04/10 16:38:00;;;;;;;3.33;2.17;;;;;10.50;96533.00;;;;8351100;28;20250;-78
2022/04/10 16:42:08;;;;;;;4.43;2.30;;;;;10.40;96546.00;;;;8350381;28;20311;-77
2022/04/10 16:46:11;;;;;;;1.90;1.80;;;;;11.10;96542.00;;;;8348680;28;20234;-77
2022/04/10 16:50:15;;;;;;;2.60;1.92;;;;;11.50;96541.00;;;;8351455;28;20220;-77
2022/04/10 16:58:41;;;;;;;2.30;2.10;;;;;10.00;96547.00;;;;8316141;28;20875;-80
2022/04/10 17:02:44;;;;;;;2.80;1.90;;;;;9.50;96549.00;;;;8310782;28;20232;-78
2022/04/10 17:06:47;;;;;;;1.80;1.70;;;;;9.20;96550.00;;;;8312224;28;20233;-78
2022/04/10 17:10:51;;;;;;;5.13;2.10;;;;;8.90;96552.00;;;;8312976;28;20248;-76
2022/04/10 17:14:56;;;;;;;2.20;2.00;;;;;8.70;96554.00;;;;8327619;28;20243;-78
2022/04/10 17:18:59;;;;;;;2.97;1.90;;;;;8.60;96553.00;;;;8346992;28;20243;-78
2022/04/10 17:23:03;;;;;;;4.20;2.03;;;;;8.50;96557.00;;;;8339241;28;20972;-77
2022/04/10 17:27:08;;;;;;;2.80;1.80;;;;;8.40;96555.00;;;;8344412;28;20228;-79
2022/04/10 17:31:14;;;;;;;4.60;2.10;;;;;8.30;96554.00;;;;8348727;28;20232;-78
2022/04/10 17:35:17;;;;;;;3.27;1.80;;;;;8.10;96558.00;;;;8348577;28;20304;-78
2022/04/10 17:39:20;;;;;;;1.97;1.73;;;;;7.90;96553.00;;;;8347336;28;20224;-75
2022/04/10 17:43:23;;;;;;;4.73;2.17;;;;;7.80;96559.00;;;;8346250;28;20316;-80
2022/04/10 17:47:29;;;;;;;2.77;1.90;;;;;7.60;96559.00;;;;8342364;28;20231;-77
2022/04/10 17:51:33;;;;;;;2.97;1.87;;;;;7.40;96563.00;;;;8347880;28;20315;-76
2022/04/10 17:55:36;;;;;;;3.70;2.67;;;;;7.20;96568.00;;;;8350022;28;20228;-77
2022/04/10 17:59:39;;;;;;;5.27;1.83;;;;;7.10;96570.00;;;;8347947;28;20236;-76
2022/04/10 18:03:45;;;;;;;2.13;1.97;;;;;6.90;96563.00;;;;8342842;28;20332;-76
2022/04/10 18:07:55;;;;;;;5.00;2.30;;;;;6.70;96570.00;;;;8344461;28;20872;-77
2022/04/10 18:11:59;;;;;;;3.20;2.10;;;;;6.50;96574.00;;;;8340739;28;20315;-77
2022/04/10 18:16:02;;;;;;;3.40;1.97;;;;;6.20;96580.00;;;;8344739;28;20216;-76
2022/04/10 18:20:08;;;;;;;3.10;2.10;;;;;5.90;96577.00;;;;8337608;28;20235;-75
2022/04/10 18:24:11;;;;;;;2.50;2.17;;;;;5.50;96578.00;;;;8347799;28;20231;-75
2022/04/10 18:28:16;;;;;;;4.80;2.13;;;;;5.10;96581.00;;;;8344022;28;20230;-76
2022/04/10 18:32:19;;;;;;;2.33;2.17;;;;;4.80;96593.00;;;;8343559;28;20338;-75
2022/04/10 18:36:24;;;;;;;2.93;2.17;;;;;4.50;96607.00;;;;8343044;28;20751;-76
2022/04/10 18:40:27;;;;;;;2.37;2.10;;;;;4.20;96604.00;;;;8340459;28;20604;-76
2022/04/10 18:44:30;;;;;;;5.43;2.80;;;;;4.10;96608.00;;;;8344120;28;20312;-76
2022/04/10 18:52:56;;;;;;;5.70;2.70;;;;;4.00;96614.00;;;;8342018;28;20223;-76
2022/04/10 18:56:59;;;;;;;2.90;2.60;;;;;4.10;96628.00;;;;8344585;28;20239;-78
2022/04/10 19:01:03;;;;;;;2.73;2.40;;;;;4.00;96620.00;;;;8340740;28;20227;-76
2022/04/10 19:05:07;;;;;;;6.63;2.70;;;;;3.90;96626.00;;;;8343913;28;20239;-77
2022/04/10 19:09:12;;;;;;;8.37;3.40;;;;;3.80;96615.00;;;;8340611;28;20891;-76
2022/04/10 19:13:16;;;;;;;6.40;4.60;;;;;3.80;96629.00;;;;8341365;28;20225;-77
2022/04/10 19:17:19;;;;;;;3.20;2.90;;;;;3.70;96640.00;;;;8340484;28;20235;-75
2022/04/10 19:21:22;;;;;;;4.60;3.37;;;;;3.50;96636.00;;;;8343971;28;20301;-78
2022/04/10 19:25:27;;;;;;;6.43;2.90;;;;;3.40;96638.00;;;;8344412;28;20239;-76
2022/04/10 19:29:30;;;;;;;4.23;3.03;;;;;3.20;96633.00;;;;8344709;28;20919;-74
2022/04/10 19:33:34;;;;;;;3.67;2.80;;;;;3.00;96637.00;;;;8344081;28;20230;-76
2022/04/10 19:37:37;;;;;;;3.77;3.00;;;;;2.70;96650.00;;;;8343305;28;20250;-77
2022/04/10 19:41:42;;;;;;;4.60;2.97;;;;;2.60;96634.00;;;;8344555;28;20647;-77
2022/04/10 19:45:45;;;;;;;3.70;3.20;;;;;2.50;96644.00;;;;8339360;28;20245;-78
2022/04/10 19:49:49;;;;;;;5.23;3.37;;;;;2.40;96646.00;;;;8347048;28;20648;-75
2022/04/10 19:53:52;;;;;;;6.23;2.87;;;;;2.30;96649.00;;;;8346415;28;20237;-74
2022/04/10 19:57:56;;;;;;;6.73;3.80;;;;;2.20;96646.00;;;;8341229;28;20860;-76
2022/04/10 20:02:00;;;;;;;5.50;3.37;;;;;2.10;96646.00;;;;8349484;28;20228;-75
2022/04/10 20:06:04;;;;;;;5.67;3.70;;;;;2.10;96637.00;;;;8349560;28;21071;-73
2022/04/10 20:10:09;;;;;;;7.70;3.30;;;;;2.00;96646.00;;;;8355783;28;20325;-73
2022/04/10 20:14:13;;;;;;;4.80;3.33;;;;;2.00;96642.00;;;;8353827;28;20229;-72
2022/04/10 20:18:17;;;;;;;5.23;3.43;;;;;1.90;96650.00;;;;8345908;28;20251;-72
2022/04/10 20:22:20;;;;;;;7.03;3.87;;;;;1.80;96649.00;;;;8350558;28;20664;-72
2022/04/10 20:26:23;;;;;;;6.67;3.73;;;;;1.80;96648.00;;;;8350776;28;20304;-72
2022/04/10 20:30:28;;;;;;;4.90;3.40;;;;;1.80;96650.00;;;;8350643;28;20715;-71
2022/04/10 20:34:31;;;;;;;7.43;3.97;;;;;1.70;96645.00;;;;8347368;28;20229;-71
2022/04/10 20:38:35;;;;;;;6.93;4.70;;;;;1.60;96655.00;;;;8347573;28;20219;-71
2022/04/10 20:42:38;;;;;;;9.47;5.27;;;;;1.60;96654.00;;;;8348322;28;20233;-70
2022/04/10 20:46:42;;;;;;;9.87;5.03;;;;;1.60;96641.00;;;;8351216;28;20226;-70
2022/04/10 20:50:45;;;;;;;11.50;5.07;;;;;1.50;96651.00;;;;8368494;28;20236;-70